sensor_id;sensor_type;location;lat;lon;timestamp;P1;durP1;ratioP1;P2;durP2;ratioP2
39882;SDS011;55824;52.220;21.040;2023-03-23T00:01:29;8.50;;;6.65;;
39882;SDS011;55824;52.220;21.040;2023-03-23T00:03:56;10.18;;;7.20;;
39882;SDS011;55824;52.220;21.040;2023-03-23T00:06:23;8.55;;;6.97;;
39882;SDS011;55824;52.220;21.040;2023-03-23T00:08:50;8.25;;;6.43;;
39882;SDS011;55824;52.220;21.040;2023-03-23T00:11:22;9.32;;;7.07;;
39882;SDS011;55824;52.220;21.040;2023-03-23T00:13:49;8.70;;;6.55;;
39882;SDS011;55824;52.220;21.040;2023-03-23T00:18:45;9.30;;;7.55;;
39882;SDS011;55824;52.220;21.040;2023-03-23T00:21:11;9.65;;;7.22;;
39882;SDS011;55824;52.220;21.040;2023-03-23T00:23:37;8.40;;;7.00;;
39882;SDS011;55824;52.220;21.040;2023-03-23T00:26:04;8.77;;;7.13;;
39882;SDS011;55824;52.220;21.040;2023-03-23T00:28:30;9.07;;;7.10;;
39882;SDS011;55824;52.220;21.040;2023-03-23T00:31:00;9.85;;;7.28;;
39882;SDS011;55824;52.220;21.040;2023-03-23T00:33:27;9.32;;;7.32;;
39882;SDS011;55824;52.220;21.040;2023-03-23T00:35:54;8.23;;;7.10;;
39882;SDS011;55824;52.220;21.040;2023-03-23T00:38:21;9.95;;;7.57;;
39882;SDS011;55824;52.220;21.040;2023-03-23T00:40:47;8.98;;;6.95;;
39882;SDS011;55824;52.220;21.040;2023-03-23T00:43:14;8.02;;;7.05;;
39882;SDS011;55824;52.220;21.040;2023-03-23T00:45:41;10.13;;;7.45;;
39882;SDS011;55824;52.220;21.040;2023-03-23T00:48:07;8.80;;;7.30;;
39882;SDS011;55824;52.220;21.040;2023-03-23T00:50:33;8.98;;;7.13;;
39882;SDS011;55824;52.220;21.040;2023-03-23T00:52:59;10.32;;;7.70;;
39882;SDS011;55824;52.220;21.040;2023-03-23T00:55:25;10.25;;;7.68;;
39882;SDS011;55824;52.220;21.040;2023-03-23T00:57:51;9.40;;;7.70;;
39882;SDS011;55824;52.220;21.040;2023-03-23T01:00:18;8.77;;;7.20;;
39882;SDS011;55824;52.220;21.040;2023-03-23T01:02:45;10.00;;;7.97;;
39882;SDS011;55824;52.220;21.040;2023-03-23T01:05:11;10.02;;;7.78;;
39882;SDS011;55824;52.220;21.040;2023-03-23T01:07:37;9.63;;;7.35;;
39882;SDS011;55824;52.220;21.040;2023-03-23T01:10:04;8.98;;;7.45;;
39882;SDS011;55824;52.220;21.040;2023-03-23T01:12:30;9.55;;;7.75;;
39882;SDS011;55824;52.220;21.040;2023-03-23T01:14:56;9.80;;;8.07;;
39882;SDS011;55824;52.220;21.040;2023-03-23T01:17:22;9.55;;;7.40;;
39882;SDS011;55824;52.220;21.040;2023-03-23T01:19:48;9.07;;;7.45;;
39882;SDS011;55824;52.220;21.040;2023-03-23T01:22:14;9.02;;;7.25;;
39882;SDS011;55824;52.220;21.040;2023-03-23T01:24:40;10.00;;;7.22;;
39882;SDS011;55824;52.220;21.040;2023-03-23T01:27:06;9.82;;;7.57;;
39882;SDS011;55824;52.220;21.040;2023-03-23T01:29:33;9.30;;;7.70;;
39882;SDS011;55824;52.220;21.040;2023-03-23T01:31:59;10.02;;;7.93;;
39882;SDS011;55824;52.220;21.040;2023-03-23T01:34:25;10.73;;;8.38;;
39882;SDS011;55824;52.220;21.040;2023-03-23T01:36:51;8.88;;;7.63;;
39882;SDS011;55824;52.220;21.040;2023-03-23T01:39:17;9.50;;;7.93;;
39882;SDS011;55824;52.220;21.040;2023-03-23T01:41:43;9.23;;;7.30;;
39882;SDS011;55824;52.220;21.040;2023-03-23T01:46:42;9.32;;;7.70;;
39882;SDS011;55824;52.220;21.040;2023-03-23T01:49:12;8.57;;;7.68;;
39882;SDS011;55824;52.220;21.040;2023-03-23T01:51:40;9.30;;;7.60;;
39882;SDS011;55824;52.220;21.040;2023-03-23T01:54:08;9.95;;;7.55;;
39882;SDS011;55824;52.220;21.040;2023-03-23T01:56:43;9.63;;;8.30;;
39882;SDS011;55824;52.220;21.040;2023-03-23T01:59:11;9.38;;;7.47;;
39882;SDS011;55824;52.220;21.040;2023-03-23T02:01:37;9.32;;;8.13;;
39882;SDS011;55824;52.220;21.040;2023-03-23T02:04:08;9.43;;;7.65;;
39882;SDS011;55824;52.220;21.040;2023-03-23T02:06:34;9.77;;;8.23;;
39882;SDS011;55824;52.220;21.040;2023-03-23T02:09:00;10.52;;;7.78;;
39882;SDS011;55824;52.220;21.040;2023-03-23T02:11:26;9.20;;;7.88;;
39882;SDS011;55824;52.220;21.040;2023-03-23T02:13:52;10.55;;;7.78;;
39882;SDS011;55824;52.220;21.040;2023-03-23T02:18:47;10.15;;;8.18;;
39882;SDS011;55824;52.220;21.040;2023-03-23T02:31:51;10.52;;;8.18;;
39882;SDS011;55824;52.220;21.040;2023-03-23T02:34:09;11.02;;;8.23;;
39882;SDS011;55824;52.220;21.040;2023-03-23T02:36:45;10.40;;;8.20;;
39882;SDS011;55824;52.220;21.040;2023-03-23T02:39:14;9.05;;;7.78;;
39882;SDS011;55824;52.220;21.040;2023-03-23T02:44:15;11.00;;;7.90;;
39882;SDS011;55824;52.220;21.040;2023-03-23T02:46:42;8.95;;;7.68;;
39882;SDS011;55824;52.220;21.040;2023-03-23T02:49:09;9.52;;;7.95;;
39882;SDS011;55824;52.220;21.040;2023-03-23T02:51:37;10.07;;;8.20;;
39882;SDS011;55824;52.220;21.040;2023-03-23T02:54:04;11.05;;;8.00;;
39882;SDS011;55824;52.220;21.040;2023-03-23T02:56:31;9.68;;;8.27;;
39882;SDS011;55824;52.220;21.040;2023-03-23T02:58:57;9.85;;;8.25;;
39882;SDS011;55824;52.220;21.040;2023-03-23T03:04:01;11.55;;;8.80;;
39882;SDS011;55824;52.220;21.040;2023-03-23T03:06:33;10.18;;;8.32;;
39882;SDS011;55824;52.220;21.040;2023-03-23T03:09:15;9.95;;;8.00;;
39882;SDS011;55824;52.220;21.040;2023-03-23T03:11:48;11.63;;;8.57;;
39882;SDS011;55824;52.220;21.040;2023-03-23T03:14:23;10.25;;;8.15;;
39882;SDS011;55824;52.220;21.040;2023-03-23T03:16:57;9.98;;;7.93;;
39882;SDS011;55824;52.220;21.040;2023-03-23T03:19:29;10.93;;;8.40;;
39882;SDS011;55824;52.220;21.040;2023-03-23T03:21:57;9.82;;;7.53;;
39882;SDS011;55824;52.220;21.040;2023-03-23T03:24:24;11.18;;;8.45;;
39882;SDS011;55824;52.220;21.040;2023-03-23T03:26:51;10.02;;;8.55;;
39882;SDS011;55824;52.220;21.040;2023-03-23T03:29:20;11.10;;;7.63;;
39882;SDS011;55824;52.220;21.040;2023-03-23T03:31:46;9.68;;;8.02;;
39882;SDS011;55824;52.220;21.040;2023-03-23T03:34:13;9.15;;;7.45;;
39882;SDS011;55824;52.220;21.040;2023-03-23T03:36:42;10.32;;;8.05;;
39882;SDS011;55824;52.220;21.040;2023-03-23T03:39:10;11.07;;;7.88;;
39882;SDS011;55824;52.220;21.040;2023-03-23T03:41:37;9.15;;;7.63;;
39882;SDS011;55824;52.220;21.040;2023-03-23T03:44:07;10.43;;;8.23;;
39882;SDS011;55824;52.220;21.040;2023-03-23T03:46:33;9.48;;;8.07;;
39882;SDS011;55824;52.220;21.040;2023-03-23T03:49:00;10.73;;;8.20;;
39882;SDS011;55824;52.220;21.040;2023-03-23T03:51:27;9.68;;;7.43;;
39882;SDS011;55824;52.220;21.040;2023-03-23T03:53:53;10.65;;;7.85;;
39882;SDS011;55824;52.220;21.040;2023-03-23T03:56:19;8.88;;;7.95;;
39882;SDS011;55824;52.220;21.040;2023-03-23T03:58:47;9.00;;;7.40;;
39882;SDS011;55824;52.220;21.040;2023-03-23T04:01:13;9.13;;;7.60;;
39882;SDS011;55824;52.220;21.040;2023-03-23T04:03:40;8.55;;;7.53;;
39882;SDS011;55824;52.220;21.040;2023-03-23T04:06:06;10.93;;;7.50;;
39882;SDS011;55824;52.220;21.040;2023-03-23T04:08:33;10.35;;;7.63;;
39882;SDS011;55824;52.220;21.040;2023-03-23T04:10:59;9.10;;;7.72;;
39882;SDS011;55824;52.220;21.040;2023-03-23T04:13:25;9.52;;;7.82;;
39882;SDS011;55824;52.220;21.040;2023-03-23T04:15:51;9.98;;;8.02;;
39882;SDS011;55824;52.220;21.040;2023-03-23T04:18:17;9.35;;;7.93;;
39882;SDS011;55824;52.220;21.040;2023-03-23T04:20:44;9.55;;;7.60;;
39882;SDS011;55824;52.220;21.040;2023-03-23T04:23:12;9.52;;;7.60;;
39882;SDS011;55824;52.220;21.040;2023-03-23T04:25:38;8.88;;;7.38;;
39882;SDS011;55824;52.220;21.040;2023-03-23T04:28:07;11.45;;;8.25;;
39882;SDS011;55824;52.220;21.040;2023-03-23T04:30:35;9.48;;;7.68;;
39882;SDS011;55824;52.220;21.040;2023-03-23T04:33:02;11.00;;;8.07;;
39882;SDS011;55824;52.220;21.040;2023-03-23T04:35:28;10.18;;;7.60;;
39882;SDS011;55824;52.220;21.040;2023-03-23T04:37:54;9.27;;;7.25;;
39882;SDS011;55824;52.220;21.040;2023-03-23T04:40:20;8.73;;;7.22;;
39882;SDS011;55824;52.220;21.040;2023-03-23T04:42:47;9.15;;;7.50;;
39882;SDS011;55824;52.220;21.040;2023-03-23T04:45:15;9.32;;;7.28;;
39882;SDS011;55824;52.220;21.040;2023-03-23T04:47:46;9.63;;;7.55;;
39882;SDS011;55824;52.220;21.040;2023-03-23T04:50:18;9.13;;;7.38;;
39882;SDS011;55824;52.220;21.040;2023-03-23T04:52:44;10.90;;;7.70;;
39882;SDS011;55824;52.220;21.040;2023-03-23T04:55:11;9.65;;;7.43;;
39882;SDS011;55824;52.220;21.040;2023-03-23T04:57:37;8.60;;;6.82;;
39882;SDS011;55824;52.220;21.040;2023-03-23T05:00:04;9.93;;;7.40;;
39882;SDS011;55824;52.220;21.040;2023-03-23T05:02:34;9.25;;;7.07;;
39882;SDS011;55824;52.220;21.040;2023-03-23T05:05:00;9.18;;;7.20;;
39882;SDS011;55824;52.220;21.040;2023-03-23T05:07:26;9.40;;;7.30;;
39882;SDS011;55824;52.220;21.040;2023-03-23T05:09:52;8.77;;;7.13;;
39882;SDS011;55824;52.220;21.040;2023-03-23T05:12:18;8.85;;;7.15;;
39882;SDS011;55824;52.220;21.040;2023-03-23T05:14:44;9.95;;;7.10;;
39882;SDS011;55824;52.220;21.040;2023-03-23T05:17:10;9.13;;;7.05;;
39882;SDS011;55824;52.220;21.040;2023-03-23T05:19:37;8.63;;;6.50;;
39882;SDS011;55824;52.220;21.040;2023-03-23T05:22:06;10.07;;;7.65;;
39882;SDS011;55824;52.220;21.040;2023-03-23T05:24:32;8.48;;;6.93;;
39882;SDS011;55824;52.220;21.040;2023-03-23T05:27:01;9.43;;;7.27;;
39882;SDS011;55824;52.220;21.040;2023-03-23T05:29:28;10.50;;;7.78;;
39882;SDS011;55824;52.220;21.040;2023-03-23T05:31:55;7.90;;;6.35;;
39882;SDS011;55824;52.220;21.040;2023-03-23T05:34:24;9.07;;;7.25;;
39882;SDS011;55824;52.220;21.040;2023-03-23T05:36:51;9.00;;;7.40;;
39882;SDS011;55824;52.220;21.040;2023-03-23T05:39:18;9.30;;;6.80;;
39882;SDS011;55824;52.220;21.040;2023-03-23T05:41:44;10.02;;;7.28;;
39882;SDS011;55824;52.220;21.040;2023-03-23T05:44:11;10.38;;;7.35;;
39882;SDS011;55824;52.220;21.040;2023-03-23T05:46:38;9.35;;;7.15;;
39882;SDS011;55824;52.220;21.040;2023-03-23T05:49:04;8.65;;;6.82;;
39882;SDS011;55824;52.220;21.040;2023-03-23T05:51:30;8.93;;;7.22;;
39882;SDS011;55824;52.220;21.040;2023-03-23T05:53:56;8.38;;;6.13;;
39882;SDS011;55824;52.220;21.040;2023-03-23T05:56:22;8.73;;;6.88;;
39882;SDS011;55824;52.220;21.040;2023-03-23T05:58:49;7.32;;;6.45;;
39882;SDS011;55824;52.220;21.040;2023-03-23T06:01:15;9.50;;;6.97;;
39882;SDS011;55824;52.220;21.040;2023-03-23T06:03:41;9.10;;;6.75;;
39882;SDS011;55824;52.220;21.040;2023-03-23T06:06:09;8.68;;;6.65;;
39882;SDS011;55824;52.220;21.040;2023-03-23T06:08:36;8.85;;;6.68;;
39882;SDS011;55824;52.220;21.040;2023-03-23T06:11:02;8.20;;;6.63;;
39882;SDS011;55824;52.220;21.040;2023-03-23T06:13:28;8.73;;;6.93;;
39882;SDS011;55824;52.220;21.040;2023-03-23T06:15:55;8.27;;;6.80;;
39882;SDS011;55824;52.220;21.040;2023-03-23T06:18:24;9.23;;;6.75;;
39882;SDS011;55824;52.220;21.040;2023-03-23T06:20:50;8.52;;;6.20;;
39882;SDS011;55824;52.220;21.040;2023-03-23T06:23:17;8.38;;;6.68;;
39882;SDS011;55824;52.220;21.040;2023-03-23T06:25:43;7.97;;;6.60;;
39882;SDS011;55824;52.220;21.040;2023-03-23T06:28:09;8.90;;;6.68;;
39882;SDS011;55824;52.220;21.040;2023-03-23T06:30:36;7.95;;;6.32;;
39882;SDS011;55824;52.220;21.040;2023-03-23T06:33:02;8.73;;;6.85;;
39882;SDS011;55824;52.220;21.040;2023-03-23T06:35:30;8.02;;;6.65;;
39882;SDS011;55824;52.220;21.040;2023-03-23T06:37:57;8.80;;;6.65;;
39882;SDS011;55824;52.220;21.040;2023-03-23T06:40:26;9.32;;;6.75;;
39882;SDS011;55824;52.220;21.040;2023-03-23T06:42:53;9.27;;;6.25;;
39882;SDS011;55824;52.220;21.040;2023-03-23T06:45:18;9.23;;;6.75;;
39882;SDS011;55824;52.220;21.040;2023-03-23T06:47:45;9.02;;;6.85;;
39882;SDS011;55824;52.220;21.040;2023-03-23T06:50:13;10.45;;;6.60;;
39882;SDS011;55824;52.220;21.040;2023-03-23T06:52:40;8.60;;;6.40;;
39882;SDS011;55824;52.220;21.040;2023-03-23T06:55:06;8.88;;;6.50;;
39882;SDS011;55824;52.220;21.040;2023-03-23T06:57:32;8.30;;;6.90;;
39882;SDS011;55824;52.220;21.040;2023-03-23T06:59:58;8.10;;;5.93;;
39882;SDS011;55824;52.220;21.040;2023-03-23T07:02:24;9.45;;;6.82;;
39882;SDS011;55824;52.220;21.040;2023-03-23T07:04:51;8.88;;;6.63;;
39882;SDS011;55824;52.220;21.040;2023-03-23T07:07:19;8.07;;;6.43;;
39882;SDS011;55824;52.220;21.040;2023-03-23T07:09:45;8.25;;;6.40;;
39882;SDS011;55824;52.220;21.040;2023-03-23T07:12:11;8.50;;;6.43;;
39882;SDS011;55824;52.220;21.040;2023-03-23T07:14:37;10.00;;;6.55;;
39882;SDS011;55824;52.220;21.040;2023-03-23T07:17:03;8.68;;;5.95;;
39882;SDS011;55824;52.220;21.040;2023-03-23T07:19:29;7.85;;;5.63;;
39882;SDS011;55824;52.220;21.040;2023-03-23T07:21:55;9.05;;;6.18;;
39882;SDS011;55824;52.220;21.040;2023-03-23T07:24:22;8.02;;;6.57;;
39882;SDS011;55824;52.220;21.040;2023-03-23T07:26:48;8.35;;;6.35;;
39882;SDS011;55824;52.220;21.040;2023-03-23T07:29:14;7.70;;;6.15;;
39882;SDS011;55824;52.220;21.040;2023-03-23T07:31:40;8.75;;;6.90;;
39882;SDS011;55824;52.220;21.040;2023-03-23T07:34:06;8.40;;;6.35;;
39882;SDS011;55824;52.220;21.040;2023-03-23T07:36:32;8.48;;;5.72;;
39882;SDS011;55824;52.220;21.040;2023-03-23T07:39:00;8.43;;;6.50;;
39882;SDS011;55824;52.220;21.040;2023-03-23T07:41:26;7.55;;;5.82;;
39882;SDS011;55824;52.220;21.040;2023-03-23T07:43:52;8.95;;;6.70;;
39882;SDS011;55824;52.220;21.040;2023-03-23T07:46:18;8.27;;;5.50;;
39882;SDS011;55824;52.220;21.040;2023-03-23T07:48:44;7.30;;;5.65;;
39882;SDS011;55824;52.220;21.040;2023-03-23T07:51:11;7.68;;;5.88;;
39882;SDS011;55824;52.220;21.040;2023-03-23T07:53:37;9.50;;;6.28;;
39882;SDS011;55824;52.220;21.040;2023-03-23T07:56:03;8.57;;;6.28;;
39882;SDS011;55824;52.220;21.040;2023-03-23T07:58:29;9.77;;;6.38;;
39882;SDS011;55824;52.220;21.040;2023-03-23T08:00:55;8.73;;;5.90;;
39882;SDS011;55824;52.220;21.040;2023-03-23T08:03:22;10.38;;;5.80;;
39882;SDS011;55824;52.220;21.040;2023-03-23T08:05:48;10.25;;;5.60;;
39882;SDS011;55824;52.220;21.040;2023-03-23T08:08:15;10.88;;;6.60;;
39882;SDS011;55824;52.220;21.040;2023-03-23T08:10:41;8.35;;;5.70;;
39882;SDS011;55824;52.220;21.040;2023-03-23T08:13:07;9.75;;;6.25;;
39882;SDS011;55824;52.220;21.040;2023-03-23T08:15:33;8.57;;;5.80;;
39882;SDS011;55824;52.220;21.040;2023-03-23T08:18:02;8.43;;;5.93;;
39882;SDS011;55824;52.220;21.040;2023-03-23T08:20:28;9.20;;;5.72;;
39882;SDS011;55824;52.220;21.040;2023-03-23T08:22:55;8.88;;;5.78;;
39882;SDS011;55824;52.220;21.040;2023-03-23T08:25:22;8.43;;;5.60;;
39882;SDS011;55824;52.220;21.040;2023-03-23T08:27:49;8.80;;;5.45;;
39882;SDS011;55824;52.220;21.040;2023-03-23T08:30:17;7.15;;;5.32;;
39882;SDS011;55824;52.220;21.040;2023-03-23T08:32:47;8.18;;;5.55;;
39882;SDS011;55824;52.220;21.040;2023-03-23T08:35:14;6.95;;;5.10;;
39882;SDS011;55824;52.220;21.040;2023-03-23T08:37:40;7.88;;;5.53;;
39882;SDS011;55824;52.220;21.040;2023-03-23T08:40:07;6.75;;;5.00;;
39882;SDS011;55824;52.220;21.040;2023-03-23T08:42:36;7.38;;;4.97;;
39882;SDS011;55824;52.220;21.040;2023-03-23T08:45:04;7.50;;;5.13;;
39882;SDS011;55824;52.220;21.040;2023-03-23T08:47:30;7.00;;;4.68;;
39882;SDS011;55824;52.220;21.040;2023-03-23T08:49:56;7.50;;;4.72;;
39882;SDS011;55824;52.220;21.040;2023-03-23T08:52:22;6.63;;;5.32;;
39882;SDS011;55824;52.220;21.040;2023-03-23T08:54:48;6.88;;;5.05;;
39882;SDS011;55824;52.220;21.040;2023-03-23T08:57:14;6.93;;;5.20;;
39882;SDS011;55824;52.220;21.040;2023-03-23T08:59:41;7.22;;;4.80;;
39882;SDS011;55824;52.220;21.040;2023-03-23T09:02:09;6.72;;;4.80;;
39882;SDS011;55824;52.220;21.040;2023-03-23T09:07:03;10.70;;;4.85;;
39882;SDS011;55824;52.220;21.040;2023-03-23T09:09:29;7.00;;;4.72;;
39882;SDS011;55824;52.220;21.040;2023-03-23T09:12:01;7.40;;;4.80;;
39882;SDS011;55824;52.220;21.040;2023-03-23T09:14:30;6.72;;;4.93;;
39882;SDS011;55824;52.220;21.040;2023-03-23T09:16:56;7.00;;;4.43;;
39882;SDS011;55824;52.220;21.040;2023-03-23T09:19:22;6.80;;;4.22;;
39882;SDS011;55824;52.220;21.040;2023-03-23T09:21:48;6.68;;;4.38;;
39882;SDS011;55824;52.220;21.040;2023-03-23T09:24:15;7.30;;;4.57;;
39882;SDS011;55824;52.220;21.040;2023-03-23T09:26:41;7.53;;;4.88;;
39882;SDS011;55824;52.220;21.040;2023-03-23T09:29:07;7.47;;;5.05;;
39882;SDS011;55824;52.220;21.040;2023-03-23T09:31:33;6.88;;;4.40;;
39882;SDS011;55824;52.220;21.040;2023-03-23T09:34:01;5.78;;;4.57;;
39882;SDS011;55824;52.220;21.040;2023-03-23T09:36:28;6.80;;;4.35;;
39882;SDS011;55824;52.220;21.040;2023-03-23T09:38:55;7.07;;;4.07;;
39882;SDS011;55824;52.220;21.040;2023-03-23T09:49:11;7.10;;;4.43;;
39882;SDS011;55824;52.220;21.040;2023-03-23T09:51:47;6.32;;;4.07;;
39882;SDS011;55824;52.220;21.040;2023-03-23T09:54:23;6.15;;;4.45;;
39882;SDS011;55824;52.220;21.040;2023-03-23T09:56:50;5.32;;;4.22;;
39882;SDS011;55824;52.220;21.040;2023-03-23T10:00:01;7.00;;;4.50;;
39882;SDS011;55824;52.220;21.040;2023-03-23T10:04:43;5.93;;;3.65;;
39882;SDS011;55824;52.220;21.040;2023-03-23T10:07:17;6.22;;;4.45;;
39882;SDS011;55824;52.220;21.040;2023-03-23T10:09:45;9.07;;;4.85;;
39882;SDS011;55824;52.220;21.040;2023-03-23T10:12:34;6.43;;;3.95;;
39882;SDS011;55824;52.220;21.040;2023-03-23T10:15:16;6.35;;;3.92;;
39882;SDS011;55824;52.220;21.040;2023-03-23T10:17:45;6.90;;;4.25;;
39882;SDS011;55824;52.220;21.040;2023-03-23T10:22:42;6.18;;;4.18;;
39882;SDS011;55824;52.220;21.040;2023-03-23T10:27:49;6.10;;;4.20;;
39882;SDS011;55824;52.220;21.040;2023-03-23T10:35:24;5.07;;;3.60;;
39882;SDS011;55824;52.220;21.040;2023-03-23T10:37:59;6.25;;;4.05;;
39882;SDS011;55824;52.220;21.040;2023-03-23T10:40:27;5.22;;;3.88;;
39882;SDS011;55824;52.220;21.040;2023-03-23T10:42:54;6.28;;;4.28;;
39882;SDS011;55824;52.220;21.040;2023-03-23T10:50:36;7.45;;;3.90;;
39882;SDS011;55824;52.220;21.040;2023-03-23T10:53:07;6.55;;;3.25;;
39882;SDS011;55824;52.220;21.040;2023-03-23T10:55:38;6.55;;;3.67;;
39882;SDS011;55824;52.220;21.040;2023-03-23T10:58:05;6.10;;;3.83;;
39882;SDS011;55824;52.220;21.040;2023-03-23T11:00:32;5.10;;;3.38;;
39882;SDS011;55824;52.220;21.040;2023-03-23T11:03:01;5.80;;;3.60;;
39882;SDS011;55824;52.220;21.040;2023-03-23T11:05:38;5.05;;;3.40;;
39882;SDS011;55824;52.220;21.040;2023-03-23T11:08:09;5.65;;;3.33;;
39882;SDS011;55824;52.220;21.040;2023-03-23T11:10:38;5.53;;;4.00;;
39882;SDS011;55824;52.220;21.040;2023-03-23T11:13:04;5.78;;;3.50;;
39882;SDS011;55824;52.220;21.040;2023-03-23T11:15:36;6.28;;;4.03;;
39882;SDS011;55824;52.220;21.040;2023-03-23T11:18:22;5.60;;;3.67;;
39882;SDS011;55824;52.220;21.040;2023-03-23T11:20:50;6.35;;;3.80;;
39882;SDS011;55824;52.220;21.040;2023-03-23T11:28:29;4.93;;;3.42;;
39882;SDS011;55824;52.220;21.040;2023-03-23T11:30:56;5.05;;;2.95;;
39882;SDS011;55824;52.220;21.040;2023-03-23T11:33:23;4.93;;;2.90;;
39882;SDS011;55824;52.220;21.040;2023-03-23T11:35:50;5.45;;;3.08;;
39882;SDS011;55824;52.220;21.040;2023-03-23T11:38:18;4.97;;;2.92;;
39882;SDS011;55824;52.220;21.040;2023-03-23T11:40:49;5.28;;;2.83;;
39882;SDS011;55824;52.220;21.040;2023-03-23T11:43:20;4.25;;;2.63;;
39882;SDS011;55824;52.220;21.040;2023-03-23T11:48:23;5.18;;;2.85;;
39882;SDS011;55824;52.220;21.040;2023-03-23T11:58:18;4.53;;;2.83;;
39882;SDS011;55824;52.220;21.040;2023-03-23T12:00:49;4.45;;;3.00;;
39882;SDS011;55824;52.220;21.040;2023-03-23T12:19:29;4.40;;;2.92;;
39882;SDS011;55824;52.220;21.040;2023-03-23T12:26:53;4.82;;;2.47;;
39882;SDS011;55824;52.220;21.040;2023-03-23T12:29:31;3.78;;;2.42;;
39882;SDS011;55824;52.220;21.040;2023-03-23T12:32:13;3.38;;;2.33;;
39882;SDS011;55824;52.220;21.040;2023-03-23T12:43:00;3.85;;;2.28;;
39882;SDS011;55824;52.220;21.040;2023-03-23T12:48:12;4.00;;;1.90;;
39882;SDS011;55824;52.220;21.040;2023-03-23T12:50:40;3.60;;;2.33;;
39882;SDS011;55824;52.220;21.040;2023-03-23T12:53:10;3.20;;;2.05;;
39882;SDS011;55824;52.220;21.040;2023-03-23T12:56:04;3.05;;;2.17;;
39882;SDS011;55824;52.220;21.040;2023-03-23T12:58:34;3.33;;;1.75;;
39882;SDS011;55824;52.220;21.040;2023-03-23T13:01:19;5.07;;;2.05;;
39882;SDS011;55824;52.220;21.040;2023-03-23T13:03:55;3.03;;;2.05;;
39882;SDS011;55824;52.220;21.040;2023-03-23T13:06:24;4.15;;;2.40;;
39882;SDS011;55824;52.220;21.040;2023-03-23T13:11:24;3.20;;;2.13;;
39882;SDS011;55824;52.220;21.040;2023-03-23T13:13:58;2.45;;;1.95;;
39882;SDS011;55824;52.220;21.040;2023-03-23T13:16:27;3.42;;;1.98;;
39882;SDS011;55824;52.220;21.040;2023-03-23T13:21:26;2.40;;;1.85;;
39882;SDS011;55824;52.220;21.040;2023-03-23T13:23:55;3.00;;;2.00;;
39882;SDS011;55824;52.220;21.040;2023-03-23T13:26:22;3.40;;;1.92;;
39882;SDS011;55824;52.220;21.040;2023-03-23T13:28:55;3.67;;;2.03;;
39882;SDS011;55824;52.220;21.040;2023-03-23T13:31:23;2.85;;;2.00;;
39882;SDS011;55824;52.220;21.040;2023-03-23T13:33:57;3.70;;;2.13;;
39882;SDS011;55824;52.220;21.040;2023-03-23T13:36:52;2.47;;;1.60;;
39882;SDS011;55824;52.220;21.040;2023-03-23T13:39:17;2.80;;;1.92;;
39882;SDS011;55824;52.220;21.040;2023-03-23T13:41:48;3.15;;;1.95;;
39882;SDS011;55824;52.220;21.040;2023-03-23T13:44:16;3.20;;;1.85;;
39882;SDS011;55824;52.220;21.040;2023-03-23T13:46:52;3.33;;;2.13;;
39882;SDS011;55824;52.220;21.040;2023-03-23T13:49:20;3.00;;;1.95;;
39882;SDS011;55824;52.220;21.040;2023-03-23T13:52:00;3.72;;;2.08;;
39882;SDS011;55824;52.220;21.040;2023-03-23T14:01:52;3.60;;;2.28;;
39882;SDS011;55824;52.220;21.040;2023-03-23T14:04:18;3.50;;;2.13;;
39882;SDS011;55824;52.220;21.040;2023-03-23T14:06:46;3.72;;;2.17;;
39882;SDS011;55824;52.220;21.040;2023-03-23T14:09:15;4.38;;;1.90;;
39882;SDS011;55824;52.220;21.040;2023-03-23T14:11:46;3.13;;;1.85;;
39882;SDS011;55824;52.220;21.040;2023-03-23T14:14:14;3.22;;;2.00;;
39882;SDS011;55824;52.220;21.040;2023-03-23T14:16:43;2.80;;;1.70;;
39882;SDS011;55824;52.220;21.040;2023-03-23T14:19:28;3.63;;;1.90;;
39882;SDS011;55824;52.220;21.040;2023-03-23T14:21:56;2.60;;;1.73;;
39882;SDS011;55824;52.220;21.040;2023-03-23T14:24:30;3.10;;;1.90;;
39882;SDS011;55824;52.220;21.040;2023-03-23T14:27:01;3.65;;;1.80;;
39882;SDS011;55824;52.220;21.040;2023-03-23T14:29:28;3.55;;;2.00;;
39882;SDS011;55824;52.220;21.040;2023-03-23T14:31:55;3.55;;;2.25;;
39882;SDS011;55824;52.220;21.040;2023-03-23T14:34:22;3.50;;;2.10;;
39882;SDS011;55824;52.220;21.040;2023-03-23T14:36:50;3.42;;;1.90;;
39882;SDS011;55824;52.220;21.040;2023-03-23T14:39:19;3.13;;;2.05;;
39882;SDS011;55824;52.220;21.040;2023-03-23T14:41:46;3.38;;;2.05;;
39882;SDS011;55824;52.220;21.040;2023-03-23T14:44:14;2.75;;;1.77;;
39882;SDS011;55824;52.220;21.040;2023-03-23T14:46:41;3.25;;;1.80;;
39882;SDS011;55824;52.220;21.040;2023-03-23T14:49:11;2.83;;;1.70;;
39882;SDS011;55824;52.220;21.040;2023-03-23T14:51:37;3.55;;;2.13;;
39882;SDS011;55824;52.220;21.040;2023-03-23T14:54:12;2.28;;;1.80;;
39882;SDS011;55824;52.220;21.040;2023-03-23T14:56:38;3.83;;;2.28;;
39882;SDS011;55824;52.220;21.040;2023-03-23T14:59:06;5.85;;;2.05;;
39882;SDS011;55824;52.220;21.040;2023-03-23T15:01:35;3.15;;;1.92;;
39882;SDS011;55824;52.220;21.040;2023-03-23T15:04:16;2.58;;;1.48;;
39882;SDS011;55824;52.220;21.040;2023-03-23T15:06:43;3.08;;;1.95;;
39882;SDS011;55824;52.220;21.040;2023-03-23T15:09:14;4.50;;;2.20;;
39882;SDS011;55824;52.220;21.040;2023-03-23T15:11:43;2.53;;;1.60;;
39882;SDS011;55824;52.220;21.040;2023-03-23T15:14:16;3.58;;;2.10;;
39882;SDS011;55824;52.220;21.040;2023-03-23T15:16:47;2.97;;;2.10;;
39882;SDS011;55824;52.220;21.040;2023-03-23T15:19:17;2.95;;;2.03;;
39882;SDS011;55824;52.220;21.040;2023-03-23T15:24:19;2.15;;;1.75;;
39882;SDS011;55824;52.220;21.040;2023-03-23T15:26:45;3.40;;;2.00;;
39882;SDS011;55824;52.220;21.040;2023-03-23T15:29:16;3.40;;;2.08;;
39882;SDS011;55824;52.220;21.040;2023-03-23T15:31:44;3.72;;;2.10;;
39882;SDS011;55824;52.220;21.040;2023-03-23T15:34:15;3.50;;;2.30;;
39882;SDS011;55824;52.220;21.040;2023-03-23T15:36:42;3.13;;;1.73;;
39882;SDS011;55824;52.220;21.040;2023-03-23T15:39:10;2.88;;;2.03;;
39882;SDS011;55824;52.220;21.040;2023-03-23T15:41:44;2.55;;;1.67;;
39882;SDS011;55824;52.220;21.040;2023-03-23T15:44:12;3.63;;;1.58;;
39882;SDS011;55824;52.220;21.040;2023-03-23T15:46:48;2.92;;;1.70;;
39882;SDS011;55824;52.220;21.040;2023-03-23T15:49:15;3.20;;;1.90;;
39882;SDS011;55824;52.220;21.040;2023-03-23T15:51:41;2.90;;;1.92;;
39882;SDS011;55824;52.220;21.040;2023-03-23T15:54:14;3.88;;;2.33;;
39882;SDS011;55824;52.220;21.040;2023-03-23T15:56:42;3.15;;;2.05;;
39882;SDS011;55824;52.220;21.040;2023-03-23T15:59:08;2.92;;;2.08;;
39882;SDS011;55824;52.220;21.040;2023-03-23T16:01:34;2.83;;;1.95;;
39882;SDS011;55824;52.220;21.040;2023-03-23T16:04:06;2.70;;;2.00;;
39882;SDS011;55824;52.220;21.040;2023-03-23T16:06:33;4.10;;;2.05;;
39882;SDS011;55824;52.220;21.040;2023-03-23T16:08:59;2.83;;;1.88;;
39882;SDS011;55824;52.220;21.040;2023-03-23T16:11:26;3.72;;;2.08;;
39882;SDS011;55824;52.220;21.040;2023-03-23T16:13:53;3.40;;;1.90;;
39882;SDS011;55824;52.220;21.040;2023-03-23T16:16:21;3.40;;;1.80;;
39882;SDS011;55824;52.220;21.040;2023-03-23T16:18:47;2.80;;;2.10;;
39882;SDS011;55824;52.220;21.040;2023-03-23T16:21:13;4.20;;;2.00;;
39882;SDS011;55824;52.220;21.040;2023-03-23T16:23:39;2.75;;;1.67;;
39882;SDS011;55824;52.220;21.040;2023-03-23T16:26:08;2.88;;;1.70;;
39882;SDS011;55824;52.220;21.040;2023-03-23T16:28:35;4.13;;;2.05;;
39882;SDS011;55824;52.220;21.040;2023-03-23T16:31:01;6.50;;;2.00;;
39882;SDS011;55824;52.220;21.040;2023-03-23T16:33:27;3.55;;;2.03;;